Time;durP1;ratioP1;P1;durP2;ratioP2;P2;SDS_P1;SDS_P2;PMS_P1;PMS_P2;Temp;Humidity;BMP_temperature;BMP_pressure;BME280_temperature;BME280_humidity;BME280_pressure;Samples;Min_cycle;Max_cycle;Signal;HPM_P1;HPM_P2
2022/08/12 00:44:40;;;;;;;5.22;2.40;;;18.80;80.20;;;;;;5071342;28;20116;-46
2022/08/12 00:47:08;;;;;;;5.68;2.65;;;18.80;80.30;;;;;;5078135;28;20035;-47
2022/08/12 00:49:35;;;;;;;5.10;3.10;;;18.80;80.30;;;;;;5073146;28;20078;-48
2022/08/12 00:52:10;;;;;;;8.27;2.30;;;18.80;80.40;;;;;;5071655;28;20108;-47
2022/08/12 00:54:49;;;;;;;3.60;2.15;;;18.70;80.50;;;;;;5082678;28;20495;-48
2022/08/12 00:57:36;;;;;;;4.00;2.15;;;18.70;80.90;;;;;;5053495;28;20048;-47
2022/08/12 01:00:22;;;;;;;6.43;2.22;;;18.70;81.10;;;;;;5071449;28;20025;-49
2022/08/12 01:02:56;;;;;;;4.18;2.15;;;18.60;81.50;;;;;;5089569;28;20553;-47
2022/08/12 01:13:46;;;;;;;3.30;2.42;;;18.50;82.30;;;;;;5084346;28;20062;-46
2022/08/12 01:16:22;;;;;;;5.55;2.70;;;18.50;82.50;;;;;;5076410;28;20488;-47
2022/08/12 01:18:51;;;;;;;3.38;2.05;;;18.50;82.60;;;;;;5072393;28;20093;-47
2022/08/12 01:21:55;;;;;;;11.15;2.40;;;18.50;82.60;;;;;;5071195;28;20035;-46
2022/08/12 01:24:58;;;;;;;3.25;2.30;;;18.50;82.70;;;;;;5053163;28;20548;-47
2022/08/12 01:27:27;;;;;;;3.67;2.15;;;18.40;82.80;;;;;;5053467;28;20075;-49
2022/08/12 01:29:56;;;;;;;5.17;2.47;;;18.40;82.90;;;;;;5053457;28;20358;-46
2022/08/12 01:32:26;;;;;;;2.73;2.10;;;18.40;83.00;;;;;;5064969;28;20111;-47
2022/08/12 01:35:14;;;;;;;;;;;18.40;83.10;;;;;;5071883;28;20672;-47
2022/08/12 01:38:00;;;;;;;3.50;2.15;;;18.40;83.20;;;;;;5090443;28;20010;-45
2022/08/12 01:40:32;;;;;;;5.03;2.25;;;18.40;83.30;;;;;;5053094;28;20025;-45
2022/08/12 01:43:04;;;;;;;4.53;2.58;;;18.40;83.40;;;;;;5081450;28;20107;-46
2022/08/12 01:45:33;;;;;;;4.90;2.60;;;18.30;83.40;;;;;;5085173;28;20390;-44
2022/08/12 01:48:16;;;;;;;3.30;2.30;;;18.30;83.60;;;;;;5071937;28;20055;-46
2022/08/12 01:51:06;;;;;;;7.60;2.90;;;18.30;83.70;;;;;;5074131;28;20020;-45
2022/08/12 01:54:05;;;;;;;5.05;2.58;;;18.30;84.00;;;;;;5080881;28;20139;-45
2022/08/12 01:56:48;;;;;;;4.43;2.63;;;18.30;84.20;;;;;;5052545;28;20035;-48
2022/08/12 01:59:48;;;;;;;4.30;1.98;;;18.30;84.30;;;;;;5082269;28;20028;-44
2022/08/12 02:02:45;;;;;;;5.15;2.80;;;18.30;84.40;;;;;;5077724;28;20024;-44
2022/08/12 02:12:20;;;;;;;5.55;3.30;;;18.20;84.40;;;;;;5083935;28;20030;-45
2022/08/12 02:15:35;;;;;;;5.47;2.58;;;18.20;84.50;;;;;;5021866;28;20032;-45
2022/08/12 02:18:30;;;;;;;5.32;2.30;;;18.20;84.30;;;;;;5031900;28;20043;-45
2022/08/12 02:21:16;;;;;;;3.95;2.60;;;18.20;84.30;;;;;;5081989;28;20051;-45
2022/08/12 02:23:43;;;;;;;5.72;3.17;;;18.20;84.20;;;;;;5081619;28;20060;-45
2022/08/12 02:26:16;;;;;;;3.65;2.13;;;18.20;84.10;;;;;;5069697;28;20035;-47
2022/08/12 02:28:42;;;;;;;3.92;2.85;;;18.20;84.10;;;;;;5070365;28;20054;-45
2022/08/12 02:31:10;;;;;;;5.30;2.63;;;18.20;84.10;;;;;;5069895;28;20441;-45
2022/08/12 02:33:36;;;;;;;6.00;2.80;;;18.20;84.10;;;;;;5075811;28;20024;-44
2022/08/12 02:36:03;;;;;;;5.93;2.70;;;18.20;84.20;;;;;;5089816;28;20020;-49
2022/08/12 02:38:30;;;;;;;3.97;2.10;;;18.20;84.20;;;;;;5062513;28;20047;-45
2022/08/12 02:40:57;;;;;;;2.85;1.92;;;18.10;84.30;;;;;;5073759;28;20024;-45
2022/08/12 02:43:39;;;;;;;3.75;2.33;;;18.10;84.50;;;;;;5074043;28;20052;-45
2022/08/12 02:46:11;;;;;;;6.93;2.70;;;18.10;84.70;;;;;;5057028;28;20028;-49
2022/08/12 02:48:52;;;;;;;6.53;2.88;;;18.00;84.80;;;;;;5076426;28;20032;-45
2022/08/12 02:51:32;;;;;;;4.07;2.30;;;18.00;84.90;;;;;;5087941;28;20016;-45
2022/08/12 02:54:03;;;;;;;4.90;3.15;;;17.90;85.10;;;;;;5069578;28;20037;-45
2022/08/12 02:56:29;;;;;;;5.03;2.50;;;17.90;85.10;;;;;;5081251;28;20106;-46
2022/08/12 02:58:56;;;;;;;4.47;2.78;;;17.90;85.20;;;;;;5080620;28;20020;-46
2022/08/12 03:01:32;;;;;;;5.43;2.13;;;17.90;85.30;;;;;;5078646;28;20449;-44
2022/08/12 03:04:04;;;;;;;6.25;2.88;;;17.90;85.40;;;;;;5080346;28;20058;-46
2022/08/12 03:06:52;;;;;;;5.30;2.75;;;17.80;85.40;;;;;;5073590;28;20414;-45
2022/08/12 03:09:18;;;;;;;3.30;2.38;;;17.80;85.40;;;;;;5069775;28;20032;-45
2022/08/12 03:11:55;;;;;;;3.47;2.42;;;17.80;85.40;;;;;;5079476;28;20016;-45
2022/08/12 03:14:26;;;;;;;7.10;3.10;;;17.70;85.50;;;;;;5063487;28;20471;-46
2022/08/12 03:17:18;;;;;;;6.75;2.63;;;17.70;85.50;;;;;;5074135;28;20040;-44
2022/08/12 03:19:46;;;;;;;4.82;2.42;;;17.60;85.60;;;;;;5071415;28;20430;-45
2022/08/12 03:22:13;;;;;;;11.77;3.05;;;17.60;85.70;;;;;;5069176;28;20354;-48
2022/08/12 03:24:42;;;;;;;7.95;2.55;;;17.50;85.80;;;;;;5069730;28;20599;-46
2022/08/12 03:27:10;;;;;;;4.17;2.50;;;17.50;85.90;;;;;;5089303;28;20040;-45
2022/08/12 03:29:37;;;;;;;5.72;3.22;;;17.50;86.20;;;;;;5071693;28;20473;-45
2022/08/12 03:32:04;;;;;;;4.35;2.50;;;17.40;86.30;;;;;;5085752;28;20031;-44
2022/08/12 03:34:32;;;;;;;4.88;3.00;;;17.40;86.50;;;;;;5069796;28;20024;-45
2022/08/12 03:37:02;;;;;;;4.65;2.97;;;17.40;86.60;;;;;;5084224;28;20020;-45
2022/08/12 03:42:27;;;;;;;4.15;2.85;;;17.40;86.80;;;;;;5073901;28;20047;-45
2022/08/12 04:01:56;;;;;;;3.55;2.78;;;17.30;87.00;;;;;;5073935;28;20047;-45
2022/08/12 04:04:23;;;;;;;8.45;2.70;;;17.30;87.00;;;;;;5069006;28;20459;-45
2022/08/12 04:06:49;;;;;;;6.07;3.42;;;17.30;87.10;;;;;;5069593;28;20024;-45
2022/08/12 04:09:21;;;;;;;6.47;3.55;;;17.20;87.20;;;;;;5069708;28;20032;-45
2022/08/12 04:14:33;;;;;;;5.30;2.78;;;17.20;87.40;;;;;;5071047;28;20032;-48
2022/08/12 04:16:59;;;;;;;5.28;3.55;;;17.30;87.40;;;;;;5083994;28;20032;-45
2022/08/12 04:19:25;;;;;;;4.97;2.60;;;17.20;87.40;;;;;;5056278;28;20035;-48
2022/08/12 04:21:51;;;;;;;4.35;2.53;;;17.20;87.50;;;;;;5069737;28;20027;-48
2022/08/12 04:24:19;;;;;;;3.28;2.45;;;17.20;87.50;;;;;;5080197;28;20418;-47
2022/08/12 04:26:45;;;;;;;5.18;3.63;;;17.20;87.60;;;;;;5054793;28;20039;-49
2022/08/12 04:29:11;;;;;;;4.93;3.15;;;17.20;87.60;;;;;;5070200;28;20040;-47
2022/08/12 04:31:40;;;;;;;6.60;2.55;;;17.30;87.60;;;;;;5075187;28;20036;-45
2022/08/12 04:34:07;;;;;;;3.95;2.97;;;17.30;87.70;;;;;;5051558;28;20025;-48
2022/08/12 04:36:35;;;;;;;4.78;2.72;;;17.30;87.80;;;;;;5068143;28;20021;-49
2022/08/12 04:39:02;;;;;;;5.95;2.88;;;17.30;87.70;;;;;;5069133;28;20060;-48
2022/08/12 04:41:31;;;;;;;9.15;3.92;;;17.30;87.80;;;;;;5051892;28;20111;-48
2022/08/12 04:43:57;;;;;;;7.25;4.15;;;17.30;87.80;;;;;;5069433;28;20552;-48
2022/08/12 04:46:24;;;;;;;7.38;3.45;;;17.30;87.70;;;;;;5083609;28;20037;-47
2022/08/12 04:48:53;;;;;;;4.38;3.22;;;17.40;87.80;;;;;;5078880;28;20031;-46
2022/08/12 04:51:20;;;;;;;5.05;2.78;;;17.30;87.80;;;;;;5085452;28;20108;-46
2022/08/12 04:53:47;;;;;;;6.53;3.90;;;17.40;87.80;;;;;;5081235;28;20028;-46
2022/08/12 04:56:16;;;;;;;6.72;3.22;;;17.40;87.80;;;;;;5091927;28;20026;-47
2022/08/12 04:58:42;;;;;;;7.10;2.65;;;17.40;87.80;;;;;;5081737;28;20024;-46
2022/08/12 05:01:09;;;;;;;5.25;2.95;;;17.40;87.80;;;;;;5111913;28;20325;-45
2022/08/12 05:03:37;;;;;;;4.90;3.00;;;17.40;87.80;;;;;;5087760;28;20025;-45
2022/08/12 05:06:05;;;;;;;9.35;3.03;;;17.40;87.80;;;;;;5086765;28;20032;-45
2022/08/12 05:08:32;;;;;;;5.60;3.17;;;17.40;87.90;;;;;;5077845;28;20436;-45
2022/08/12 05:10:57;;;;;;;7.82;3.13;;;17.40;88.10;;;;;;5084870;28;20021;-45
2022/08/12 05:13:35;;;;;;;6.68;3.80;;;17.40;88.10;;;;;;5072225;28;20024;-44
2022/08/12 05:16:01;;;;;;;5.15;3.00;;;17.40;88.10;;;;;;5079900;28;20399;-48
2022/08/12 05:18:27;;;;;;;4.93;2.75;;;17.50;88.20;;;;;;5056207;28;20036;-46
2022/08/12 05:20:53;;;;;;;6.10;3.47;;;17.50;88.30;;;;;;5090952;28;20394;-46
2022/08/12 05:23:21;;;;;;;4.82;3.70;;;17.60;88.30;;;;;;5083920;28;20038;-44
2022/08/12 05:25:48;;;;;;;6.07;3.08;;;17.60;88.40;;;;;;5070758;28;20025;-45
2022/08/12 05:28:15;;;;;;;6.57;3.70;;;17.60;88.40;;;;;;5073466;28;20071;-44
2022/08/12 05:30:42;;;;;;;5.00;3.22;;;17.70;88.50;;;;;;5084592;28;20039;-46
2022/08/12 05:33:10;;;;;;;6.82;3.13;;;17.70;88.40;;;;;;5076569;28;20024;-44
2022/08/12 05:35:39;;;;;;;8.32;3.20;;;17.80;88.60;;;;;;5073112;28;20021;-44
2022/08/12 05:40:59;;;;;;;4.72;3.13;;;18.00;88.60;;;;;;5085545;28;20047;-47
2022/08/12 05:43:25;;;;;;;6.20;2.90;;;18.10;88.50;;;;;;5070824;28;20041;-44
2022/08/12 05:45:51;;;;;;;4.63;3.45;;;18.20;88.30;;;;;;5056785;28;20372;-44
2022/08/12 05:48:20;;;;;;;7.05;3.25;;;18.30;88.10;;;;;;5085042;28;20040;-45
2022/08/12 05:50:47;;;;;;;6.13;3.30;;;18.30;88.00;;;;;;5064894;28;20069;-46
2022/08/12 05:53:13;;;;;;;4.10;3.20;;;18.40;87.60;;;;;;5064131;28;20112;-45
2022/08/12 05:55:41;;;;;;;4.25;3.05;;;18.40;87.60;;;;;;5079931;28;20127;-45
2022/08/12 05:58:07;;;;;;;6.15;3.00;;;18.50;87.30;;;;;;5061659;28;20024;-45
2022/08/12 06:00:51;;;;;;;5.82;2.53;;;18.50;87.10;;;;;;5087646;28;20039;-45
2022/08/12 06:03:16;;;;;;;5.13;3.20;;;18.60;86.90;;;;;;5071953;28;20075;-48
2022/08/12 06:05:44;;;;;;;3.97;3.15;;;18.60;86.70;;;;;;5052814;28;20048;-46
2022/08/12 06:08:10;;;;;;;11.70;3.30;;;18.60;86.40;;;;;;5078639;28;20081;-45
2022/08/12 06:10:36;;;;;;;5.88;3.00;;;18.60;86.40;;;;;;5070149;28;20489;-45
2022/08/12 06:13:04;;;;;;;5.65;2.85;;;18.60;86.20;;;;;;5080354;28;20031;-46
2022/08/12 06:15:31;;;;;;;6.95;3.58;;;18.70;86.10;;;;;;5078484;28;20147;-46
2022/08/12 06:18:06;;;;;;;12.27;3.33;;;18.80;85.90;;;;;;5086212;28;20024;-47
2022/08/12 06:20:34;;;;;;;7.00;3.47;;;18.80;85.40;;;;;;5083771;28;20357;-47
2022/08/12 06:23:02;;;;;;;6.70;2.90;;;18.80;85.30;;;;;;5069186;28;20111;-45
2022/08/12 06:25:29;;;;;;;5.47;3.05;;;18.90;85.20;;;;;;5086308;28;20040;-49
2022/08/12 06:27:57;;;;;;;3.92;2.90;;;18.90;84.10;;;;;;5087344;28;20333;-45
2022/08/12 06:30:25;;;;;;;4.18;2.78;;;19.00;84.00;;;;;;5067623;28;20036;-47
2022/08/12 06:32:53;;;;;;;5.47;2.97;;;19.00;83.90;;;;;;5070785;28;20868;-45
2022/08/12 06:35:19;;;;;;;6.53;3.10;;;19.10;84.20;;;;;;5071540;28;20084;-47
2022/08/12 06:37:54;;;;;;;3.70;2.47;;;19.20;83.80;;;;;;5086136;28;20437;-50
2022/08/12 06:43:09;;;;;;;5.32;2.67;;;19.30;83.30;;;;;;5083214;28;20059;-49
2022/08/12 06:45:43;;;;;;;5.10;2.60;;;19.40;83.20;;;;;;5069382;28;20024;-45
2022/08/12 06:48:10;;;;;;;6.55;2.63;;;19.40;83.20;;;;;;5087366;28;20598;-49
2022/08/12 06:50:38;;;;;;;4.95;2.83;;;19.50;83.10;;;;;;5078047;28;20060;-45
2022/08/12 06:53:08;;;;;;;4.25;2.97;;;19.50;82.60;;;;;;5069095;28;20028;-46
2022/08/12 06:55:35;;;;;;;5.00;2.90;;;19.60;83.30;;;;;;5069543;28;20020;-46
2022/08/12 06:58:03;;;;;;;3.63;2.30;;;19.60;82.80;;;;;;5080621;28;20047;-46
2022/08/12 07:00:33;;;;;;;4.40;2.70;;;19.70;82.40;;;;;;5069247;28;20033;-46
2022/08/12 07:03:00;;;;;;;5.97;2.50;;;19.70;82.30;;;;;;5086524;28;20107;-45
2022/08/12 07:05:27;;;;;;;5.85;2.80;;;19.80;82.10;;;;;;5079046;28;20411;-47
2022/08/12 07:07:58;;;;;;;6.20;2.78;;;19.80;81.90;;;;;;5068846;28;20046;-48
2022/08/12 07:10:32;;;;;;;5.07;2.60;;;19.90;80.90;;;;;;5077002;28;20056;-48
2022/08/12 07:13:01;;;;;;;5.03;2.58;;;19.90;80.00;;;;;;5086796;28;20452;-47
2022/08/12 07:15:29;;;;;;;5.85;2.97;;;19.90;79.60;;;;;;5082277;28;20028;-47
2022/08/12 07:17:59;;;;;;;7.60;3.47;;;20.00;79.30;;;;;;5082264;28;20076;-48
2022/08/12 07:20:28;;;;;;;8.35;3.38;;;20.20;79.30;;;;;;5077927;28;20020;-49
2022/08/12 07:22:59;;;;;;;4.25;2.50;;;20.20;78.80;;;;;;5087619;28;20472;-46
2022/08/12 07:25:31;;;;;;;3.90;2.83;;;20.20;78.80;;;;;;5037366;28;20078;-47
2022/08/12 07:28:17;;;;;;;5.97;2.88;;;20.40;79.90;;;;;;5069233;28;20027;-46
2022/08/12 07:30:45;;;;;;;5.00;2.55;;;20.50;78.80;;;;;;5050810;28;20048;-46
2022/08/12 07:33:15;;;;;;;7.05;3.08;;;20.90;77.60;;;;;;5082241;28;20028;-47
2022/08/12 07:35:48;;;;;;;10.52;4.30;;;21.10;76.50;;;;;;5055182;28;20043;-48
2022/08/12 07:38:37;;;;;;;7.50;3.03;;;21.40;74.90;;;;;;5086154;28;20445;-46
2022/08/12 07:41:12;;;;;;;5.70;2.85;;;21.90;74.50;;;;;;5086328;28;20024;-46
2022/08/12 07:44:03;;;;;;;6.25;3.00;;;22.40;73.10;;;;;;5083200;28;20484;-46
2022/08/12 07:46:37;;;;;;;8.05;3.30;;;22.90;72.30;;;;;;5059638;28;20119;-47
2022/08/12 07:49:26;;;;;;;7.57;2.75;;;23.40;70.60;;;;;;5089002;28;20058;-48
2022/08/12 07:51:52;;;;;;;4.15;2.15;;;23.70;68.20;;;;;;5084421;28;20484;-49
2022/08/12 07:54:18;;;;;;;8.05;2.33;;;23.90;67.20;;;;;;5070541;28;20052;-48
2022/08/12 07:56:43;;;;;;;6.05;2.45;;;24.20;67.20;;;;;;5058558;28;20049;-49
2022/08/12 07:59:09;;;;;;;6.35;2.40;;;24.40;66.00;;;;;;5084373;28;20032;-46
2022/08/12 08:01:41;;;;;;;4.63;2.20;;;24.70;65.30;;;;;;5074661;28;20406;-47
2022/08/12 08:06:53;;;;;;;5.47;1.95;;;25.10;62.50;;;;;;5089106;28;20112;-47
2022/08/12 08:09:34;;;;;;;5.38;2.38;;;25.40;62.90;;;;;;5084997;28;20487;-46
2022/08/12 08:14:45;;;;;;;5.60;2.15;;;25.90;62.20;;;;;;5077349;28;20082;-45
2022/08/12 08:17:14;;;;;;;7.10;2.60;;;26.10;61.50;;;;;;5078609;28;20481;-46
2022/08/12 08:19:51;;;;;;;5.15;2.20;;;26.20;61.50;;;;;;5088626;28;20028;-49
2022/08/12 08:22:19;;;;;;;3.67;2.00;;;26.50;59.60;;;;;;5083837;28;20414;-45
2022/08/12 08:24:45;;;;;;;4.68;2.10;;;26.80;60.20;;;;;;5071419;28;20024;-48
2022/08/12 08:27:12;;;;;;;5.80;2.45;;;26.90;59.90;;;;;;5070221;28;20032;-46
2022/08/12 08:29:43;;;;;;;7.35;2.38;;;27.00;59.10;;;;;;5086754;28;20078;-45
2022/08/12 08:32:13;;;;;;;11.07;2.55;;;27.20;59.00;;;;;;5089541;28;20027;-45
2022/08/12 08:34:39;;;;;;;5.40;2.70;;;27.40;59.20;;;;;;5090346;28;20031;-47
2022/08/12 08:37:05;;;;;;;3.88;2.65;;;27.30;58.80;;;;;;5090533;28;20028;-48
2022/08/12 08:39:31;;;;;;;4.35;2.30;;;27.40;58.60;;;;;;5073430;28;20402;-48
2022/08/12 08:44:42;;;;;;;4.93;2.50;;;27.40;57.30;;;;;;5081142;28;20082;-46
2022/08/12 08:47:10;;;;;;;5.82;2.78;;;27.40;58.20;;;;;;5080568;28;20036;-49
2022/08/12 08:49:36;;;;;;;4.90;2.90;;;27.30;57.50;;;;;;5080583;28;20380;-45
2022/08/12 08:52:07;;;;;;;4.85;2.47;;;27.60;58.40;;;;;;5088083;28;20034;-46
2022/08/12 08:54:33;;;;;;;4.82;2.22;;;27.70;56.10;;;;;;5054936;28;20512;-46
2022/08/12 08:57:01;;;;;;;6.38;2.10;;;27.80;55.40;;;;;;5079812;28;20039;-46
2022/08/12 08:59:28;;;;;;;7.28;2.60;;;27.70;56.50;;;;;;5073098;28;20032;-46
2022/08/12 09:01:54;;;;;;;5.60;2.40;;;27.60;57.50;;;;;;5093862;28;20481;-46
2022/08/12 09:04:23;;;;;;;3.95;2.33;;;27.80;57.50;;;;;;5093557;28;20103;-46
2022/08/12 09:06:50;;;;;;;8.00;2.58;;;27.80;56.70;;;;;;5071495;28;20435;-46
2022/08/12 09:09:16;;;;;;;11.63;2.85;;;27.60;55.20;;;;;;5088655;28;20032;-46
2022/08/12 09:14:27;;;;;;;9.98;2.53;;;27.60;58.10;;;;;;5073245;28;20058;-46
2022/08/12 09:16:52;;;;;;;3.60;2.70;;;27.60;59.60;;;;;;5076467;28;20017;-46
2022/08/12 09:19:18;;;;;;;4.45;2.47;;;27.40;60.20;;;;;;5077824;28;20043;-46
2022/08/12 09:21:49;;;;;;;12.98;2.60;;;27.40;61.20;;;;;;5071410;28;20024;-48
2022/08/12 09:24:18;;;;;;;6.97;2.83;;;27.30;60.00;;;;;;5071234;28;20036;-46
2022/08/12 09:26:46;;;;;;;9.50;3.40;;;27.30;62.10;;;;;;5070667;28;20042;-46
2022/08/12 09:29:13;;;;;;;9.15;2.63;;;27.40;60.90;;;;;;5070997;28;20476;-46
2022/08/12 09:31:40;;;;;;;7.00;2.67;;;27.40;60.10;;;;;;5056981;28;20365;-46
2022/08/12 09:34:09;;;;;;;6.35;2.72;;;27.40;60.30;;;;;;5076178;28;20029;-46
2022/08/12 09:36:37;;;;;;;7.57;3.13;;;27.30;59.70;;;;;;5070914;28;20016;-47
2022/08/12 09:39:05;;;;;;;15.52;3.08;;;27.10;60.60;;;;;;5084202;28;20040;-46
2022/08/12 09:41:44;;;;;;;5.43;2.72;;;27.10;62.30;;;;;;5089168;28;20069;-47
2022/08/12 09:46:55;;;;;;;6.65;3.47;;;27.20;60.40;;;;;;5085550;28;20051;-48
2022/08/12 09:49:23;;;;;;;7.13;2.47;;;27.30;60.30;;;;;;5075770;28;20055;-46
2022/08/12 09:51:49;;;;;;;7.53;2.90;;;27.40;61.80;;;;;;5080987;28;20052;-50
2022/08/12 09:54:16;;;;;;;13.57;3.40;;;27.40;59.50;;;;;;5077119;28;20112;-47
2022/08/12 09:56:44;;;;;;;8.18;2.65;;;27.60;61.30;;;;;;5080526;28;20070;-50
2022/08/12 09:59:10;;;;;;;4.22;2.70;;;27.90;58.90;;;;;;5055860;28;20370;-49
2022/08/12 10:01:39;;;;;;;6.13;3.05;;;27.90;57.40;;;;;;5081564;28;20103;-48
2022/08/12 10:04:09;;;;;;;;;;;27.90;55.70;;;;;;5089069;28;20032;-47
2022/08/12 10:06:40;;;;;;;5.93;2.90;;;27.90;57.60;;;;;;5088801;28;19908;-47
2022/08/12 10:09:08;;;;;;;9.00;2.60;;;28.00;56.20;;;;;;5090090;28;20028;-46
2022/08/12 10:14:19;;;;;;;8.27;2.95;;;28.00;56.40;;;;;;5074581;28;20032;-46
2022/08/12 10:16:45;;;;;;;5.65;2.42;;;27.90;57.40;;;;;;5082509;28;20020;-47
2022/08/12 10:19:15;;;;;;;6.43;2.85;;;27.90;57.70;;;;;;5085506;28;20059;-47
2022/08/12 10:21:41;;;;;;;5.35;2.45;;;27.90;57.40;;;;;;5052535;28;20028;-47
2022/08/12 10:24:13;;;;;;;5.30;3.28;;;27.70;55.80;;;;;;5083594;28;20032;-48
2022/08/12 10:29:44;;;;;;;5.88;3.70;;;27.60;56.70;;;;;;5071437;28;20043;-46
2022/08/12 10:32:19;;;;;;;9.40;3.72;;;27.50;58.40;;;;;;5086786;28;20020;-46
2022/08/12 10:34:46;;;;;;;7.25;3.00;;;27.50;59.10;;;;;;5054758;28;20104;-46
2022/08/12 10:37:12;;;;;;;4.45;3.17;;;27.60;60.80;;;;;;5077415;28;20017;-46
2022/08/12 10:39:39;;;;;;;6.50;3.55;;;27.40;58.90;;;;;;5064994;28;20028;-47
2022/08/12 10:45:08;;;;;;;7.97;3.47;;;27.20;58.40;;;;;;5032117;28;20048;-47
2022/08/12 10:47:36;;;;;;;4.50;2.88;;;27.30;57.40;;;;;;5050959;28;20421;-46
2022/08/12 10:50:06;;;;;;;5.47;2.90;;;27.40;58.00;;;;;;5050427;28;20047;-47
2022/08/12 10:52:32;;;;;;;5.85;3.38;;;27.50;57.70;;;;;;5058935;28;20062;-47
2022/08/12 10:54:58;;;;;;;8.23;3.50;;;27.50;60.20;;;;;;5068747;28;20016;-47
2022/08/12 10:57:25;;;;;;;5.57;3.47;;;27.40;59.60;;;;;;5066905;28;20151;-47
2022/08/12 10:59:56;;;;;;;6.78;3.53;;;27.30;63.10;;;;;;5069245;28;20357;-48
2022/08/12 11:02:25;;;;;;;6.43;3.42;;;27.20;62.70;;;;;;5050453;28;20104;-48
2022/08/12 11:04:56;;;;;;;7.50;3.60;;;27.10;63.10;;;;;;5053761;28;20452;-50
2022/08/12 11:07:25;;;;;;;7.35;3.42;;;27.30;62.40;;;;;;5067280;28;20048;-49
2022/08/12 11:09:50;;;;;;;4.55;3.25;;;27.40;63.70;;;;;;5050616;28;20036;-47
2022/08/12 11:12:19;;;;;;;6.32;3.47;;;27.40;63.10;;;;;;5050348;28;20029;-46
2022/08/12 11:14:47;;;;;;;9.43;3.00;;;27.50;62.80;;;;;;5068003;28;20086;-48
2022/08/12 11:17:15;;;;;;;12.27;4.43;;;27.40;63.60;;;;;;5050219;28;20037;-49
2022/08/12 11:19:42;;;;;;;5.78;3.63;;;27.40;61.90;;;;;;5049130;28;20519;-47
2022/08/12 11:22:10;;;;;;;10.57;4.30;;;27.50;61.70;;;;;;5057674;28;20037;-47
2022/08/12 11:24:36;;;;;;;6.22;3.15;;;27.50;62.40;;;;;;5060645;28;20024;-47
2022/08/12 11:27:08;;;;;;;10.40;4.03;;;27.50;62.60;;;;;;5049329;28;20040;-47
2022/08/12 11:29:35;;;;;;;8.48;3.92;;;27.40;63.10;;;;;;5048004;28;20037;-47
2022/08/12 11:32:00;;;;;;;7.85;3.83;;;27.20;63.30;;;;;;5064896;28;20446;-48
2022/08/12 11:34:26;;;;;;;10.68;3.95;;;27.30;65.20;;;;;;5066406;28;20036;-48
2022/08/12 11:36:59;;;;;;;7.75;4.45;;;27.30;66.00;;;;;;5053619;28;20036;-47
2022/08/12 11:39:26;;;;;;;13.43;4.28;;;27.20;63.60;;;;;;5051360;28;20028;-47
2022/08/12 11:41:51;;;;;;;10.40;4.25;;;27.40;65.20;;;;;;5067795;28;20028;-49
2022/08/12 11:44:17;;;;;;;5.95;3.47;;;27.40;63.30;;;;;;5049566;28;20123;-50
2022/08/12 11:46:43;;;;;;;6.93;3.40;;;27.40;66.10;;;;;;5069240;28;20032;-47
2022/08/12 11:49:09;;;;;;;9.38;4.20;;;27.40;65.50;;;;;;5048865;28;20035;-48
2022/08/12 11:51:35;;;;;;;6.45;4.15;;;27.20;62.60;;;;;;5069274;28;20406;-47
2022/08/12 11:54:04;;;;;;;5.80;4.20;;;27.40;64.40;;;;;;5062973;28;20039;-50
2022/08/12 11:56:32;;;;;;;8.48;4.05;;;27.30;62.80;;;;;;5058758;28;20032;-47
2022/08/12 11:58:58;;;;;;;10.50;3.75;;;27.40;64.40;;;;;;5055597;28;20072;-47
2022/08/12 12:01:24;;;;;;;6.70;3.63;;;27.40;64.50;;;;;;5065439;28;20055;-47
2022/08/12 12:03:52;;;;;;;8.48;3.70;;;27.30;61.10;;;;;;5073701;28;20465;-47
2022/08/12 12:06:20;;;;;;;10.35;3.58;;;27.20;60.30;;;;;;5065850;28;20044;-47
2022/08/12 12:08:46;;;;;;;9.85;3.60;;;27.00;60.30;;;;;;5055433;28;20111;-48
2022/08/12 12:11:12;;;;;;;11.98;4.15;;;27.10;60.00;;;;;;5063287;28;20039;-47
2022/08/12 12:13:38;;;;;;;7.70;3.15;;;27.20;62.00;;;;;;5073773;28;20024;-48
2022/08/12 12:16:04;;;;;;;8.70;3.67;;;27.10;61.60;;;;;;5071918;28;20111;-47
2022/08/12 12:18:32;;;;;;;8.65;3.60;;;27.30;63.50;;;;;;5075429;28;20040;-48
2022/08/12 12:21:00;;;;;;;7.78;3.65;;;27.40;61.40;;;;;;5073417;28;20078;-47
2022/08/12 12:23:26;;;;;;;17.20;4.22;;;27.40;62.80;;;;;;5074921;28;20025;-47
2022/08/12 12:25:53;;;;;;;6.00;3.65;;;27.30;62.70;;;;;;5072141;28;20044;-50
2022/08/12 12:28:22;;;;;;;6.40;2.97;;;27.30;63.90;;;;;;5064954;28;20373;-48
2022/08/12 12:30:49;;;;;;;8.00;3.75;;;27.30;64.50;;;;;;5060850;28;20098;-47
2022/08/12 12:33:15;;;;;;;8.50;4.57;;;27.30;63.70;;;;;;5073327;28;20323;-48
2022/08/12 12:35:43;;;;;;;8.43;3.80;;;27.10;63.90;;;;;;5061676;28;20083;-47
2022/08/12 12:38:10;;;;;;;8.52;4.60;;;27.00;64.20;;;;;;5063544;28;20029;-51
2022/08/12 12:40:38;;;;;;;6.60;3.88;;;26.90;63.30;;;;;;5073549;28;20029;-47
2022/08/12 12:43:04;;;;;;;6.03;3.65;;;26.80;64.50;;;;;;5072354;28;20016;-47
2022/08/12 12:45:32;;;;;;;4.97;3.00;;;26.80;64.70;;;;;;5115339;28;20059;-47
2022/08/12 12:48:02;;;;;;;8.43;4.05;;;26.70;64.30;;;;;;5101883;28;20040;-48
2022/08/12 12:50:29;;;;;;;6.68;3.85;;;26.60;63.20;;;;;;5095274;28;20024;-49
2022/08/12 12:52:55;;;;;;;11.60;4.35;;;26.60;66.00;;;;;;5072674;28;20074;-48
2022/08/12 12:55:25;;;;;;;6.82;3.83;;;26.60;64.80;;;;;;5085474;28;20035;-48
2022/08/12 12:57:53;;;;;;;;;;;26.70;66.00;;;;;;5061026;28;20028;-48
2022/08/12 13:00:20;;;;;;;6.05;3.63;;;26.80;65.60;;;;;;5090028;28;19907;-47
2022/08/12 13:02:56;;;;;;;9.25;4.38;;;26.70;66.00;;;;;;5112649;28;20023;-52
2022/08/12 13:05:41;;;;;;;7.82;3.55;;;26.60;65.40;;;;;;5112308;28;20496;-46
2022/08/12 13:08:29;;;;;;;5.80;3.45;;;26.50;66.90;;;;;;5095408;28;20031;-48
2022/08/12 13:11:02;;;;;;;10.93;4.25;;;26.50;67.10;;;;;;5073997;28;20338;-50
2022/08/12 13:13:31;;;;;;;6.43;4.15;;;26.60;66.00;;;;;;5075182;28;20043;-48
2022/08/12 13:16:00;;;;;;;10.18;4.30;;;26.50;66.70;;;;;;5078962;28;20487;-47
2022/08/12 13:18:32;;;;;;;7.57;3.47;;;26.50;65.10;;;;;;5091541;28;20024;-47
2022/08/12 13:20:57;;;;;;;6.80;3.25;;;26.40;66.10;;;;;;5089741;28;20032;-47
2022/08/12 13:23:23;;;;;;;6.95;3.42;;;26.30;67.30;;;;;;5069071;28;20032;-47
2022/08/12 13:25:49;;;;;;;6.30;3.63;;;26.30;66.80;;;;;;5075433;28;20114;-48
2022/08/12 13:28:27;;;;;;;6.43;3.55;;;26.20;66.90;;;;;;5071825;28;20457;-50
2022/08/12 13:30:56;;;;;;;5.70;3.30;;;26.10;67.80;;;;;;5089866;28;20020;-47
2022/08/12 13:33:25;;;;;;;7.40;2.83;;;26.00;66.10;;;;;;5080794;28;20062;-47
2022/08/12 13:35:53;;;;;;;6.15;3.75;;;26.00;67.50;;;;;;5090818;28;20089;-50
2022/08/12 13:38:19;;;;;;;5.65;2.72;;;26.10;69.10;;;;;;5060699;28;20028;-49
2022/08/12 13:40:45;;;;;;;5.63;2.70;;;26.30;68.40;;;;;;5071050;28;20039;-52
2022/08/12 13:43:14;;;;;;;6.32;3.10;;;26.20;65.40;;;;;;5078241;28;20070;-47
2022/08/12 13:45:40;;;;;;;11.02;2.95;;;26.10;66.80;;;;;;5085835;28;20025;-48
2022/08/12 13:48:09;;;;;;;8.30;3.30;;;26.20;67.20;;;;;;5053428;28;20810;-47
2022/08/12 13:50:38;;;;;;;6.00;3.15;;;26.30;68.90;;;;;;5056688;28;20551;-47
2022/08/12 13:53:09;;;;;;;11.13;2.97;;;26.20;67.70;;;;;;5083204;28;20024;-47
2022/08/12 13:55:36;;;;;;;5.20;2.90;;;26.20;67.10;;;;;;5072686;28;20017;-47
2022/08/12 13:58:04;;;;;;;6.53;2.50;;;26.30;68.80;;;;;;5088697;28;20453;-48
2022/08/12 14:00:31;;;;;;;5.60;2.90;;;26.30;68.20;;;;;;5087294;28;20031;-47
2022/08/12 14:02:57;;;;;;;6.10;2.40;;;26.30;69.60;;;;;;5077379;28;20439;-47
2022/08/12 14:05:22;;;;;;;8.02;2.65;;;26.40;67.40;;;;;;5070716;28;20162;-50
2022/08/12 14:08:01;;;;;;;5.70;2.67;;;26.40;65.90;;;;;;5064982;28;20085;-47
2022/08/12 14:10:35;;;;;;;8.97;2.83;;;26.40;65.70;;;;;;5070055;28;20504;-49
2022/08/12 14:13:25;;;;;;;5.40;2.58;;;26.50;67.30;;;;;;5074231;28;20274;-50
2022/08/12 14:15:53;;;;;;;4.82;2.38;;;26.50;65.90;;;;;;5080499;28;20521;-50
2022/08/12 14:18:20;;;;;;;6.50;2.60;;;26.50;64.70;;;;;;5070374;28;20424;-47
2022/08/12 14:20:49;;;;;;;9.35;2.88;;;26.50;65.50;;;;;;5052731;28;20028;-51
2022/08/12 14:23:17;;;;;;;4.97;2.60;;;26.60;65.60;;;;;;5071196;28;20055;-49
2022/08/12 14:25:47;;;;;;;3.38;2.22;;;26.60;64.30;;;;;;5065627;28;20053;-50
2022/08/12 14:28:15;;;;;;;8.45;1.95;;;26.70;65.00;;;;;;5087792;28;20032;-48
2022/08/12 14:30:57;;;;;;;7.15;2.50;;;26.90;64.20;;;;;;5062816;28;20028;-49
2022/08/12 14:33:27;;;;;;;3.70;1.80;;;26.80;62.60;;;;;;5071204;28;20040;-49
2022/08/12 14:35:52;;;;;;;;;;;26.70;61.80;;;;;;5068376;28;20465;-47
2022/08/12 14:38:27;;;;;;;5.95;2.30;;;26.70;60.90;;;;;;5069282;28;20034;-47
2022/08/12 14:40:56;;;;;;;6.28;2.42;;;26.80;61.00;;;;;;5070126;28;20103;-48
2022/08/12 14:43:23;;;;;;;4.45;2.88;;;26.80;60.90;;;;;;5046863;28;20049;-47
2022/08/12 14:45:53;;;;;;;8.18;2.53;;;26.90;60.20;;;;;;5076323;28;20033;-48
2022/08/12 14:48:19;;;;;;;4.32;1.92;;;26.90;59.70;;;;;;5059349;28;20043;-48
2022/08/12 14:50:46;;;;;;;6.90;2.40;;;26.80;58.90;;;;;;5062132;28;20116;-48
2022/08/12 14:53:16;;;;;;;7.13;2.25;;;26.80;59.50;;;;;;5055156;28;20032;-51